Foscoe, North Carolina
Current Conditions -  °F | °C
As of 6:55 AM on Friday 21 Nov 2014 (Local Time) from KTNB Reporting Station
Clear Clear  
Wind Chill: 12°   Ceiling: Unl
Heat Index: 27°   Visibility: 10mi
Dew Point: 11°   Wind: 22mph
Humidity: 53%   Direction: 290°WNW
Pressure: 30.2"   Gusts: 32mph
Location:  36.1797°N, 81.8424°W
Report Text: KTNB 211155Z AUTO 29019G28KT 10SM CLR M03/M11 A3020 RMK AO2 T10301115 10000 21030
Loading
Personal Weather Stations






























Interactive Weather Map New forecast layout! Learn more

10-Day Weather Forecast

Advertisements
Track Severe Weather on mobile